Time;durP1;ratioP1;P1;durP2;ratioP2;P2;SDS_P1;SDS_P2;PMS_P1;PMS_P2;Temp;Humidity;BMP_temperature;BMP_pressure;BME280_temperature;BME280_humidity;BME280_pressure;Samples;Min_cycle;Max_cycle;Signal;HPM_P1;HPM_P2
2023/07/15 00:01:06;;;;;;;8.77;3.30;;;20.50;93.00;;;;;;5034660;28;20063;-73
2023/07/15 00:03:34;;;;;;;5.68;3.10;;;20.50;93.00;;;;;;5034999;28;20049;-73
2023/07/15 00:06:00;;;;;;;4.68;2.45;;;20.50;93.00;;;;;;5034652;28;20037;-73
2023/07/15 00:08:27;;;;;;;8.20;3.00;;;20.50;92.90;;;;;;5034781;28;20041;-73
2023/07/15 00:10:54;;;;;;;4.95;2.72;;;20.50;92.80;;;;;;5034514;28;20116;-73
2023/07/15 00:13:20;;;;;;;5.60;2.92;;;20.50;92.80;;;;;;5034666;28;20048;-73
2023/07/15 00:15:49;;;;;;;5.45;2.72;;;20.50;92.70;;;;;;5034420;28;20042;-73
2023/07/15 00:18:16;;;;;;;4.75;2.45;;;20.50;92.60;;;;;;5034345;28;20034;-73
2023/07/15 00:20:42;;;;;;;5.88;3.05;;;20.50;92.40;;;;;;5034412;28;20037;-73
2023/07/15 00:23:25;;;;;;;6.55;2.60;;;20.40;92.20;;;;;;5034572;28;20045;-73
2023/07/15 00:25:53;;;;;;;5.45;2.63;;;20.50;92.00;;;;;;5017834;28;20657;-73
2023/07/15 00:28:22;;;;;;;8.43;2.83;;;20.40;92.00;;;;;;5034077;28;20042;-74
2023/07/15 00:30:52;;;;;;;4.93;2.72;;;20.40;91.90;;;;;;5034156;28;20088;-74
2023/07/15 00:33:19;;;;;;;8.77;2.70;;;20.40;91.90;;;;;;5032840;28;20245;-74
2023/07/15 00:35:45;;;;;;;6.20;2.78;;;20.40;91.70;;;;;;5033985;28;20103;-74
2023/07/15 00:38:11;;;;;;;11.23;3.35;;;20.40;91.50;;;;;;5033935;28;20041;-74
2023/07/15 00:40:47;;;;;;;7.25;2.70;;;20.40;91.50;;;;;;5034279;28;20083;-74
2023/07/15 00:43:51;;;;;;;5.13;2.88;;;20.50;91.20;;;;;;5034048;28;20120;-74
2023/07/15 00:46:16;;;;;;;;;;;20.50;90.90;;;;;;5034250;28;20042;-73
2023/07/15 00:48:45;;;;;;;6.00;2.60;;;20.40;91.00;;;;;;5033911;28;19916;-73
2023/07/15 00:51:10;;;;;;;5.70;2.33;;;20.40;91.00;;;;;;5033958;28;20490;-73
2023/07/15 00:53:36;;;;;;;7.97;2.45;;;20.50;90.90;;;;;;5017239;28;20059;-73
2023/07/15 00:56:01;;;;;;;6.05;2.80;;;20.50;90.80;;;;;;5033675;28;20096;-73
2023/07/15 00:58:27;;;;;;;7.60;2.70;;;20.50;90.50;;;;;;5017083;28;20073;-73
2023/07/15 01:00:52;;;;;;;6.80;2.67;;;20.60;90.40;;;;;;5033559;28;20088;-73
2023/07/15 01:03:18;;;;;;;6.65;3.28;;;20.60;90.30;;;;;;5033532;28;20120;-73
2023/07/15 01:05:44;;;;;;;5.45;2.58;;;20.60;90.20;;;;;;5033473;28;20045;-73
2023/07/15 01:08:09;;;;;;;5.38;2.58;;;20.60;90.20;;;;;;5033665;28;20050;-73
2023/07/15 01:10:35;;;;;;;7.55;3.10;;;20.60;90.00;;;;;;5033457;28;20582;-73
2023/07/15 01:13:05;;;;;;;6.32;2.83;;;20.60;90.00;;;;;;5033316;28;20049;-73
2023/07/15 01:15:30;;;;;;;8.15;3.25;;;20.60;89.50;;;;;;5033227;28;20046;-73
2023/07/15 01:17:56;;;;;;;6.47;2.42;;;20.60;89.70;;;;;;5033188;28;20083;-73
2023/07/15 01:20:25;;;;;;;8.10;2.85;;;20.60;89.50;;;;;;5033221;28;20041;-73
2023/07/15 01:22:51;;;;;;;5.85;2.60;;;20.60;89.00;;;;;;5033143;28;20489;-73
2023/07/15 01:25:17;;;;;;;4.07;2.53;;;20.60;88.70;;;;;;5033145;28;20041;-73
2023/07/15 01:27:42;;;;;;;7.03;2.70;;;20.60;88.70;;;;;;5033006;28;20048;-73
2023/07/15 01:30:09;;;;;;;5.72;2.53;;;20.60;88.60;;;;;;5016550;28;20045;-73
2023/07/15 01:32:35;;;;;;;4.38;2.42;;;20.60;88.00;;;;;;5032973;28;20045;-73
2023/07/15 01:35:03;;;;;;;4.50;2.50;;;20.60;87.70;;;;;;5032877;28;20045;-73
2023/07/15 01:37:29;;;;;;;5.63;2.20;;;20.70;87.30;;;;;;5032948;28;20034;-73
2023/07/15 01:39:54;;;;;;;6.05;2.28;;;20.70;87.10;;;;;;5016286;28;20043;-73
2023/07/15 01:42:20;;;;;;;5.18;2.60;;;20.70;87.10;;;;;;5032718;28;20037;-73
2023/07/15 01:44:45;;;;;;;7.00;2.42;;;20.70;87.10;;;;;;5032390;28;20048;-73
2023/07/15 01:47:11;;;;;;;3.88;2.10;;;20.70;86.90;;;;;;5032642;28;20038;-73
2023/07/15 01:49:37;;;;;;;4.13;2.10;;;20.70;86.80;;;;;;5032724;28;20053;-73
2023/07/15 01:52:02;;;;;;;3.67;2.22;;;20.70;86.50;;;;;;5032626;28;20067;-73
2023/07/15 01:54:28;;;;;;;5.72;2.22;;;20.70;86.70;;;;;;5032539;28;20136;-73
2023/07/15 01:56:54;;;;;;;6.93;2.40;;;20.70;86.40;;;;;;5032534;28;20034;-73
2023/07/15 01:59:19;;;;;;;4.32;2.35;;;20.70;86.20;;;;;;5032708;28;20049;-73
2023/07/15 02:01:45;;;;;;;7.32;2.50;;;20.70;86.10;;;;;;5032452;28;20391;-73
2023/07/15 02:04:10;;;;;;;7.35;2.40;;;20.70;86.10;;;;;;5015975;28;20037;-73
2023/07/15 02:06:36;;;;;;;6.57;2.70;;;20.70;86.10;;;;;;5032680;28;20077;-73
2023/07/15 02:09:05;;;;;;;7.22;2.28;;;20.80;85.70;;;;;;5032589;28;20084;-73
2023/07/15 02:11:30;;;;;;;6.57;2.40;;;20.70;85.70;;;;;;5015897;28;20045;-73
2023/07/15 02:13:56;;;;;;;6.30;2.13;;;20.70;85.80;;;;;;5032242;28;20052;-73
2023/07/15 02:16:22;;;;;;;4.13;1.92;;;20.70;85.80;;;;;;5032492;28;20124;-73
2023/07/15 02:18:48;;;;;;;4.50;1.95;;;20.70;85.60;;;;;;5032360;28;20045;-73
2023/07/15 02:21:13;;;;;;;7.93;2.33;;;20.60;85.40;;;;;;5032116;28;20387;-73
2023/07/15 02:23:39;;;;;;;7.68;2.40;;;20.60;85.20;;;;;;5032153;28;20036;-73
2023/07/15 02:26:05;;;;;;;6.18;2.75;;;20.60;85.50;;;;;;5032144;28;20045;-73
2023/07/15 02:28:30;;;;;;;8.32;2.55;;;20.60;85.50;;;;;;5031965;28;20045;-73
2023/07/15 02:30:56;;;;;;;4.78;2.38;;;20.60;85.70;;;;;;5032351;28;20049;-73
2023/07/15 02:33:23;;;;;;;4.47;2.30;;;20.60;85.60;;;;;;5032027;28;20499;-73
2023/07/15 02:35:48;;;;;;;7.75;2.22;;;20.60;85.70;;;;;;5031878;28;20075;-73
2023/07/15 02:38:14;;;;;;;4.05;2.45;;;20.60;85.80;;;;;;5032105;28;20034;-73
2023/07/15 02:40:40;;;;;;;5.47;2.53;;;20.60;85.80;;;;;;5031935;28;20379;-73
2023/07/15 02:43:05;;;;;;;5.65;2.22;;;20.60;85.80;;;;;;5031891;28;20033;-73
2023/07/15 02:45:31;;;;;;;6.78;2.40;;;20.60;85.80;;;;;;5031924;28;20052;-73
2023/07/15 02:47:56;;;;;;;8.73;2.30;;;20.60;85.70;;;;;;5032029;28;20049;-73
2023/07/15 02:50:22;;;;;;;7.72;2.30;;;20.50;85.70;;;;;;5031759;28;20494;-73
2023/07/15 02:52:48;;;;;;;5.03;2.20;;;20.50;85.80;;;;;;5031793;28;20049;-73
2023/07/15 02:55:14;;;;;;;4.80;2.22;;;20.50;85.90;;;;;;5031696;28;20049;-73
2023/07/15 02:57:40;;;;;;;6.40;2.25;;;20.50;85.80;;;;;;5034286;28;20037;-73
2023/07/15 03:00:15;;;;;;;6.45;2.42;;;20.40;85.60;;;;;;5035935;28;20041;-73
2023/07/15 03:02:44;;;;;;;5.95;2.42;;;20.40;85.70;;;;;;5019419;28;20088;-73
2023/07/15 03:05:10;;;;;;;8.25;2.05;;;20.40;85.80;;;;;;5019540;28;20037;-73
2023/07/15 03:07:36;;;;;;;5.43;2.42;;;20.30;85.80;;;;;;5035954;28;20418;-73
2023/07/15 03:10:03;;;;;;;4.78;2.00;;;20.30;85.80;;;;;;5019227;28;20080;-73
2023/07/15 03:12:28;;;;;;;5.40;2.05;;;20.30;85.90;;;;;;5035665;28;20037;-73
2023/07/15 03:14:54;;;;;;;6.03;2.38;;;20.30;86.10;;;;;;5035557;28;20038;-73
2023/07/15 03:17:20;;;;;;;5.45;1.98;;;20.30;86.30;;;;;;5035598;28;20040;-73
2023/07/15 03:19:45;;;;;;;3.65;1.85;;;20.30;86.40;;;;;;5035470;28;20041;-73
2023/07/15 03:22:11;;;;;;;5.72;2.17;;;20.20;86.20;;;;;;5019060;28;20029;-73
2023/07/15 03:24:38;;;;;;;4.07;2.35;;;20.20;86.10;;;;;;5035748;28;20081;-73
2023/07/15 03:27:04;;;;;;;5.20;2.20;;;20.20;85.90;;;;;;5035355;28;20042;-73
2023/07/15 03:29:30;;;;;;;8.43;2.10;;;20.20;85.90;;;;;;5035226;28;20096;-73
2023/07/15 03:31:55;;;;;;;6.93;2.05;;;20.20;86.10;;;;;;5035307;28;20076;-73
2023/07/15 03:34:21;;;;;;;5.35;1.95;;;20.10;86.40;;;;;;5035264;28;20111;-73
2023/07/15 03:36:47;;;;;;;4.85;2.15;;;20.10;86.30;;;;;;5035133;28;20167;-73
2023/07/15 03:39:12;;;;;;;6.30;2.20;;;20.10;86.20;;;;;;5035325;28;20144;-73
2023/07/15 03:41:38;;;;;;;7.72;1.92;;;20.00;86.40;;;;;;5035140;28;20041;-73
2023/07/15 03:44:03;;;;;;;5.78;1.83;;;19.90;86.50;;;;;;5035343;28;20045;-73
2023/07/15 03:46:30;;;;;;;8.23;2.22;;;19.90;86.70;;;;;;5035032;28;20048;-73
2023/07/15 03:48:56;;;;;;;7.25;2.10;;;19.90;86.80;;;;;;5034807;28;20033;-73
2023/07/15 03:51:21;;;;;;;5.60;2.00;;;19.90;86.90;;;;;;5034953;28;20041;-73
2023/07/15 03:53:48;;;;;;;7.00;2.13;;;19.90;86.60;;;;;;5034891;28;20044;-73
2023/07/15 03:56:13;;;;;;;3.88;1.75;;;19.90;86.70;;;;;;5034785;28;20045;-73
2023/07/15 03:58:39;;;;;;;4.65;1.80;;;19.90;86.60;;;;;;5034725;28;20091;-73
2023/07/15 04:01:05;;;;;;;6.75;2.15;;;19.90;86.40;;;;;;5034805;28;20040;-73
2023/07/15 04:03:30;;;;;;;3.20;1.75;;;19.90;86.40;;;;;;5034785;28;20124;-73
2023/07/15 04:05:56;;;;;;;3.28;1.70;;;19.90;86.30;;;;;;5034959;28;20041;-73
2023/07/15 04:08:21;;;;;;;5.22;1.98;;;19.90;86.00;;;;;;5034304;28;20578;-73
2023/07/15 04:10:47;;;;;;;5.32;1.90;;;19.90;86.10;;;;;;5034561;28;20037;-73
2023/07/15 04:13:13;;;;;;;6.97;2.05;;;19.90;86.00;;;;;;5035409;28;20077;-73
2023/07/15 04:15:39;;;;;;;3.97;1.85;;;20.00;86.10;;;;;;5034579;28;20072;-73
2023/07/15 04:18:05;;;;;;;6.40;2.10;;;20.00;86.10;;;;;;5034782;28;20072;-73
2023/07/15 04:20:30;;;;;;;7.90;2.10;;;20.00;86.20;;;;;;5034401;28;20038;-73
2023/07/15 04:22:56;;;;;;;6.85;1.90;;;20.00;86.00;;;;;;5034352;28;20052;-73
2023/07/15 04:25:21;;;;;;;5.18;1.77;;;20.00;86.10;;;;;;5034294;28;20037;-73
2023/07/15 04:27:47;;;;;;;7.15;2.40;;;20.00;86.20;;;;;;5034483;28;20041;-73
2023/07/15 04:30:13;;;;;;;8.63;2.67;;;20.10;86.10;;;;;;5017993;28;20034;-73
2023/07/15 04:32:38;;;;;;;5.18;1.85;;;20.10;86.20;;;;;;5034179;28;20506;-73
2023/07/15 04:35:04;;;;;;;8.85;2.33;;;20.10;86.10;;;;;;5034290;28;20099;-73
2023/07/15 04:37:30;;;;;;;7.38;2.10;;;20.10;86.40;;;;;;5034047;28;20406;-73
2023/07/15 04:39:56;;;;;;;6.70;2.00;;;20.10;86.70;;;;;;5033972;28;20065;-73
2023/07/15 04:42:22;;;;;;;6.30;2.20;;;20.10;87.00;;;;;;5033962;28;20041;-73
2023/07/15 04:44:48;;;;;;;6.88;2.20;;;20.10;87.40;;;;;;5017730;28;20095;-73
2023/07/15 04:47:13;;;;;;;6.47;2.30;;;20.10;87.60;;;;;;5033764;28;20445;-73
2023/07/15 04:49:39;;;;;;;6.03;1.90;;;20.10;87.60;;;;;;5017144;28;20037;-73
2023/07/15 04:52:05;;;;;;;9.75;2.25;;;20.20;87.80;;;;;;5034022;28;20045;-73
2023/07/15 04:54:31;;;;;;;7.15;2.60;;;20.20;87.70;;;;;;5033599;28;20041;-73
2023/07/15 04:56:57;;;;;;;6.97;1.90;;;20.10;87.70;;;;;;5017179;28;20082;-73
2023/07/15 04:59:22;;;;;;;7.10;2.10;;;20.20;87.50;;;;;;5033553;28;20037;-73
2023/07/15 05:01:48;;;;;;;10.38;1.90;;;20.20;87.40;;;;;;5033603;28;20064;-73
2023/07/15 05:04:14;;;;;;;7.28;2.15;;;20.30;87.30;;;;;;5033555;28;20033;-73
2023/07/15 05:06:40;;;;;;;6.70;2.40;;;20.30;87.40;;;;;;5033749;28;20037;-73
2023/07/15 05:09:05;;;;;;;9.00;2.17;;;20.30;87.40;;;;;;5033646;28;20037;-73
2023/07/15 05:11:31;;;;;;;8.75;2.13;;;20.40;87.30;;;;;;5033438;28;20099;-73
2023/07/15 05:13:57;;;;;;;5.45;2.05;;;20.40;87.20;;;;;;5033637;28;20073;-73
2023/07/15 05:16:22;;;;;;;6.82;1.90;;;20.40;87.20;;;;;;5033286;28;20406;-73
2023/07/15 05:18:48;;;;;;;5.53;1.65;;;20.50;87.50;;;;;;5033030;28;20496;-73
2023/07/15 05:21:14;;;;;;;4.68;2.15;;;20.50;87.40;;;;;;5032838;28;20461;-73
2023/07/15 05:23:40;;;;;;;4.45;2.10;;;20.50;87.50;;;;;;5016994;28;20064;-73
2023/07/15 05:26:05;;;;;;;4.75;1.92;;;20.60;87.40;;;;;;5016671;28;20494;-73
2023/07/15 05:28:32;;;;;;;5.28;2.03;;;20.60;87.30;;;;;;5033020;28;20084;-73
2023/07/15 05:30:59;;;;;;;8.15;2.15;;;20.60;87.10;;;;;;5033046;28;20041;-73
2023/07/15 05:33:24;;;;;;;5.22;2.15;;;20.70;87.10;;;;;;5033430;28;20037;-73
2023/07/15 05:35:50;;;;;;;7.28;2.58;;;20.70;87.40;;;;;;5032953;28;20425;-73
2023/07/15 05:38:16;;;;;;;5.28;2.28;;;20.70;88.00;;;;;;5032989;28;20036;-73
2023/07/15 05:40:42;;;;;;;6.20;2.20;;;20.80;87.70;;;;;;5032834;28;20120;-73
2023/07/15 05:43:10;;;;;;;9.15;2.63;;;20.80;87.40;;;;;;5032834;28;20045;-73
2023/07/15 05:45:36;;;;;;;6.80;2.58;;;20.90;87.40;;;;;;5032796;28;20077;-73
2023/07/15 05:48:02;;;;;;;5.70;2.28;;;20.90;87.50;;;;;;5032960;28;20077;-73
2023/07/15 05:50:32;;;;;;;4.25;2.28;;;21.00;87.40;;;;;;5016236;28;20048;-73
2023/07/15 05:52:58;;;;;;;6.25;2.53;;;21.00;87.30;;;;;;5032986;28;20045;-73
2023/07/15 05:55:23;;;;;;;7.97;2.50;;;21.10;88.20;;;;;;5032754;28;20175;-73
2023/07/15 05:57:49;;;;;;;6.15;2.15;;;21.10;87.30;;;;;;5032753;28;20398;-73
2023/07/15 06:00:15;;;;;;;9.23;2.20;;;21.20;87.30;;;;;;5032778;28;20410;-73
2023/07/15 06:02:41;;;;;;;7.20;2.08;;;21.20;87.20;;;;;;5032491;28;20045;-73
2023/07/15 06:05:07;;;;;;;5.68;2.15;;;21.30;87.50;;;;;;5016266;28;20036;-73
2023/07/15 06:07:33;;;;;;;7.88;2.20;;;21.30;87.50;;;;;;5032672;28;20045;-73
2023/07/15 06:09:58;;;;;;;7.55;2.35;;;21.40;87.50;;;;;;5032276;28;20524;-73
2023/07/15 06:12:24;;;;;;;5.63;2.13;;;21.50;87.70;;;;;;5032335;28;20038;-73
2023/07/15 06:14:50;;;;;;;6.43;2.00;;;21.60;87.10;;;;;;5016027;28;20073;-73
2023/07/15 06:17:15;;;;;;;5.40;2.10;;;21.70;87.50;;;;;;5032272;28;20041;-73
2023/07/15 06:19:41;;;;;;;4.38;2.03;;;21.80;87.60;;;;;;5032130;28;20034;-73
2023/07/15 06:22:07;;;;;;;4.00;1.85;;;21.90;88.00;;;;;;5032432;28;20048;-73
2023/07/15 06:24:32;;;;;;;8.15;1.90;;;21.90;88.20;;;;;;5032153;28;20047;-73
2023/07/15 06:26:58;;;;;;;6.88;2.08;;;22.00;88.40;;;;;;5032134;28;20120;-73
2023/07/15 06:29:24;;;;;;;6.60;2.17;;;22.10;89.50;;;;;;5032056;28;20037;-73
2023/07/15 06:31:50;;;;;;;6.75;1.83;;;22.10;89.60;;;;;;5032000;28;20508;-73
2023/07/15 06:34:16;;;;;;;6.80;2.05;;;22.10;89.80;;;;;;5031984;28;20459;-73
2023/07/15 06:36:42;;;;;;;3.40;2.00;;;22.20;89.60;;;;;;5015487;28;20073;-73
2023/07/15 06:39:08;;;;;;;5.15;2.03;;;22.20;89.50;;;;;;5032143;28;20083;-73
2023/07/15 06:41:33;;;;;;;7.43;2.05;;;22.30;89.40;;;;;;5032161;28;20490;-73
2023/07/15 06:43:59;;;;;;;4.93;2.00;;;22.40;89.60;;;;;;5032207;28;20041;-74
2023/07/15 06:46:25;;;;;;;5.50;1.83;;;22.50;89.50;;;;;;5031908;28;20044;-73
2023/07/15 06:48:51;;;;;;;4.68;2.05;;;22.60;89.70;;;;;;5031942;28;20095;-73
2023/07/15 06:51:18;;;;;;;7.20;1.85;;;22.70;89.10;;;;;;5031876;28;20041;-73
2023/07/15 06:53:44;;;;;;;4.38;1.80;;;22.70;88.90;;;;;;5031837;28;20041;-73
2023/07/15 06:56:10;;;;;;;10.32;2.08;;;22.80;89.30;;;;;;5031735;28;20048;-73
2023/07/15 06:58:35;;;;;;;6.13;2.20;;;22.80;89.10;;;;;;5015270;28;20040;-73
2023/07/15 07:01:01;;;;;;;8.10;2.22;;;22.80;89.40;;;;;;5031737;28;20060;-73
2023/07/15 07:03:27;;;;;;;5.93;1.83;;;22.90;88.70;;;;;;5031924;28;20080;-73
2023/07/15 07:05:53;;;;;;;6.05;2.40;;;22.90;88.50;;;;;;5031653;28;20046;-73
2023/07/15 07:08:22;;;;;;;9.57;2.25;;;23.10;88.70;;;;;;5031598;28;20038;-72
2023/07/15 07:10:53;;;;;;;4.80;1.88;;;23.20;88.90;;;;;;5031618;28;20069;-72
2023/07/15 07:13:19;;;;;;;5.60;2.00;;;23.20;89.10;;;;;;5031730;28;20144;-73
2023/07/15 07:15:45;;;;;;;7.25;2.03;;;23.20;89.00;;;;;;5015122;28;20038;-73
2023/07/15 07:18:11;;;;;;;4.65;2.15;;;23.20;89.00;;;;;;5015022;28;20029;-73
2023/07/15 07:20:38;;;;;;;9.55;2.58;;;23.30;88.90;;;;;;5031576;28;20048;-73
2023/07/15 07:23:04;;;;;;;4.93;1.95;;;23.40;88.30;;;;;;5031826;28;20041;-73
2023/07/15 07:25:29;;;;;;;5.20;1.80;;;23.40;87.80;;;;;;5031489;28;20517;-73
2023/07/15 07:27:55;;;;;;;4.80;2.00;;;23.40;88.20;;;;;;5031458;28;20042;-73
2023/07/15 07:30:21;;;;;;;4.25;1.73;;;23.50;88.40;;;;;;5031464;28;20049;-73
2023/07/15 07:32:47;;;;;;;8.45;2.38;;;23.60;88.00;;;;;;5031463;28;20056;-73
2023/07/15 07:35:12;;;;;;;6.10;1.70;;;23.70;88.50;;;;;;5031340;28;20041;-73
2023/07/15 07:37:38;;;;;;;9.52;1.88;;;23.70;88.20;;;;;;5031310;28;20038;-73
2023/07/15 07:40:04;;;;;;;3.92;1.77;;;23.70;88.10;;;;;;5031375;28;20045;-73
2023/07/15 07:42:30;;;;;;;3.25;1.38;;;23.80;88.30;;;;;;5031882;28;20037;-73
2023/07/15 07:44:55;;;;;;;4.15;1.60;;;23.80;88.60;;;;;;5035106;28;20056;-73
2023/07/15 07:47:21;;;;;;;8.05;1.70;;;23.80;88.60;;;;;;5035273;28;20034;-73
2023/07/15 07:49:46;;;;;;;4.53;1.48;;;23.80;89.00;;;;;;5018381;28;20500;-73
2023/07/15 07:52:12;;;;;;;2.88;1.58;;;24.00;89.00;;;;;;5034961;28;20045;-73
2023/07/15 07:54:39;;;;;;;5.18;1.90;;;24.00;89.20;;;;;;5034893;28;20128;-73
2023/07/15 07:57:05;;;;;;;3.60;1.60;;;24.10;88.70;;;;;;5018388;28;20478;-73
2023/07/15 07:59:31;;;;;;;2.75;1.40;;;24.20;89.30;;;;;;5018289;28;20033;-73
2023/07/15 08:01:56;;;;;;;4.13;1.70;;;24.40;89.20;;;;;;5034746;28;20045;-73
2023/07/15 08:04:22;;;;;;;5.88;1.60;;;24.60;87.80;;;;;;5034751;28;20029;-73
2023/07/15 08:06:48;;;;;;;4.03;1.67;;;24.70;87.40;;;;;;5034714;28;20053;-73
2023/07/15 08:09:13;;;;;;;6.07;1.70;;;24.80;86.50;;;;;;5034596;28;20033;-73
2023/07/15 08:11:39;;;;;;;7.20;1.77;;;24.80;85.80;;;;;;5034624;28;20053;-73
2023/07/15 08:14:05;;;;;;;5.43;1.40;;;24.70;85.80;;;;;;5034596;28;20041;-73
2023/07/15 08:16:35;;;;;;;4.70;1.85;;;24.80;86.10;;;;;;5034524;28;20037;-73
2023/07/15 08:19:02;;;;;;;4.72;1.52;;;24.80;86.70;;;;;;5034399;28;20116;-73
2023/07/15 08:21:28;;;;;;;4.82;1.88;;;24.90;87.00;;;;;;5034457;28;20038;-73
2023/07/15 08:23:54;;;;;;;3.85;1.63;;;24.90;87.20;;;;;;5034374;28;20141;-73
2023/07/15 08:26:21;;;;;;;5.53;2.53;;;25.00;87.10;;;;;;5034346;28;20095;-73
2023/07/15 08:28:47;;;;;;;5.85;1.65;;;25.10;87.40;;;;;;5035083;28;20103;-73
2023/07/15 08:31:12;;;;;;;5.60;1.88;;;25.20;87.40;;;;;;5034263;28;20116;-73
2023/07/15 08:33:38;;;;;;;5.40;2.08;;;25.30;86.20;;;;;;5034193;28;20048;-73
2023/07/15 08:36:03;;;;;;;6.22;1.77;;;25.30;86.40;;;;;;5034272;28;20064;-73
2023/07/15 08:38:31;;;;;;;6.80;2.20;;;25.30;86.20;;;;;;5034021;28;20448;-73
2023/07/15 08:41:00;;;;;;;4.63;1.67;;;25.40;86.00;;;;;;5034106;28;20056;-73
2023/07/15 08:43:28;;;;;;;3.25;1.40;;;25.60;85.60;;;;;;5034273;28;20053;-73
2023/07/15 08:45:57;;;;;;;4.03;1.60;;;25.70;84.90;;;;;;5033988;28;20055;-73
2023/07/15 08:48:22;;;;;;;4.75;1.52;;;25.90;84.70;;;;;;5033707;28;20128;-73
2023/07/15 08:50:49;;;;;;;5.78;2.33;;;26.00;84.00;;;;;;5017489;28;20125;-73
2023/07/15 08:53:20;;;;;;;5.25;1.80;;;26.20;83.60;;;;;;5034121;28;20045;-73
2023/07/15 08:55:46;;;;;;;3.38;1.73;;;26.20;83.40;;;;;;5032747;28;20096;-73
2023/07/15 08:58:12;;;;;;;6.28;1.70;;;26.20;83.30;;;;;;5033715;28;20037;-73
2023/07/15 09:00:38;;;;;;;4.35;1.88;;;26.40;83.10;;;;;;5033715;28;20045;-73
2023/07/15 09:03:05;;;;;;;3.78;1.70;;;26.40;82.50;;;;;;5033697;28;20040;-73
2023/07/15 09:05:31;;;;;;;5.82;1.50;;;26.40;83.10;;;;;;5033581;28;20498;-74
2023/07/15 09:07:57;;;;;;;2.33;1.40;;;26.60;83.80;;;;;;5033535;28;20056;-73
2023/07/15 09:10:24;;;;;;;4.18;1.73;;;26.70;81.50;;;;;;5033765;28;20075;-73
2023/07/15 09:12:54;;;;;;;4.15;1.55;;;26.70;81.30;;;;;;5033492;28;20513;-73
2023/07/15 09:15:20;;;;;;;3.70;1.48;;;26.70;81.10;;;;;;5033349;28;20041;-73
2023/07/15 09:17:53;;;;;;;3.78;1.70;;;26.50;81.00;;;;;;5033363;28;20076;-73
2023/07/15 09:20:20;;;;;;;4.85;1.70;;;26.40;81.00;;;;;;5033350;28;20038;-73
2023/07/15 09:22:58;;;;;;;3.85;1.45;;;26.40;81.30;;;;;;5033717;28;20124;-73
2023/07/15 09:25:26;;;;;;;5.15;2.13;;;26.30;81.70;;;;;;5033229;28;20524;-73
2023/07/15 09:27:53;;;;;;;5.20;1.50;;;26.30;81.70;;;;;;5016694;28;20037;-73
2023/07/15 09:30:19;;;;;;;5.10;1.60;;;26.40;81.90;;;;;;5033125;28;20045;-73
2023/07/15 09:32:45;;;;;;;3.47;1.60;;;26.30;81.90;;;;;;5016640;28;20084;-74
2023/07/15 09:35:11;;;;;;;3.80;1.52;;;26.20;82.20;;;;;;5033252;28;20045;-74
2023/07/15 09:37:38;;;;;;;3.30;1.60;;;26.20;83.10;;;;;;5033000;28;20029;-74
2023/07/15 09:40:08;;;;;;;6.18;1.80;;;26.30;83.30;;;;;;5033263;28;20103;-72
2023/07/15 09:42:56;;;;;;;3.38;1.90;;;26.60;84.00;;;;;;5033135;28;20555;-72
2023/07/15 09:45:36;;;;;;;4.88;1.75;;;26.90;82.40;;;;;;5032867;28;20091;-72
2023/07/15 09:48:04;;;;;;;7.15;1.77;;;27.00;82.10;;;;;;5032731;28;20045;-72
2023/07/15 09:50:33;;;;;;;4.68;1.60;;;27.00;81.50;;;;;;5032694;28;20422;-72
2023/07/15 09:52:59;;;;;;;4.50;1.67;;;27.10;81.30;;;;;;5032794;28;20053;-72
2023/07/15 09:55:26;;;;;;;2.55;1.52;;;27.10;81.20;;;;;;5032592;28;20127;-72
2023/07/15 09:57:58;;;;;;;3.47;1.50;;;27.40;80.60;;;;;;5032794;28;20049;-72
2023/07/15 10:00:27;;;;;;;7.78;1.42;;;27.50;80.10;;;;;;5032865;28;20060;-72
2023/07/15 10:02:57;;;;;;;4.95;1.65;;;27.50;79.50;;;;;;5032517;28;20037;-72
2023/07/15 10:05:26;;;;;;;5.00;1.30;;;27.50;79.40;;;;;;5032154;28;20418;-72
2023/07/15 10:07:53;;;;;;;3.03;1.38;;;27.60;79.50;;;;;;5032526;28;20045;-72
2023/07/15 10:10:20;;;;;;;4.38;1.20;;;27.60;78.60;;;;;;5032436;28;20046;-72
2023/07/15 10:12:47;;;;;;;2.50;1.35;;;27.50;77.90;;;;;;5032333;28;20042;-72
2023/07/15 10:15:13;;;;;;;11.50;1.70;;;27.50;77.50;;;;;;5032313;28;20091;-72
2023/07/15 10:17:39;;;;;;;4.75;1.38;;;27.60;77.90;;;;;;5032241;28;20041;-72
2023/07/15 10:20:11;;;;;;;9.57;3.10;;;27.70;77.20;;;;;;5032491;28;20038;-76
2023/07/15 10:22:38;;;;;;;2.70;1.13;;;27.60;77.20;;;;;;5032432;28;20498;-72
2023/07/15 10:25:07;;;;;;;3.00;0.88;;;27.60;77.90;;;;;;5032182;28;20040;-72
2023/07/15 10:27:33;;;;;;;6.22;1.20;;;27.60;78.20;;;;;;5032413;28;20087;-72
2023/07/15 10:30:18;;;;;;;3.45;1.20;;;27.60;78.60;;;;;;5032305;28;20067;-72
2023/07/15 10:33:10;;;;;;;5.43;1.00;;;27.60;78.40;;;;;;5032342;28;20144;-72
2023/07/15 10:35:42;;;;;;;4.70;1.27;;;27.50;76.10;;;;;;5021832;28;20054;-72
2023/07/15 10:38:29;;;;;;;4.43;1.30;;;27.50;77.30;;;;;;5015808;28;20033;-72
2023/07/15 10:41:00;;;;;;;8.30;1.15;;;27.40;76.60;;;;;;5031878;28;20037;-72
2023/07/15 10:43:34;;;;;;;1.58;0.70;;;27.20;74.60;;;;;;5032197;28;20037;-72
2023/07/15 10:46:06;;;;;;;11.73;1.50;;;27.10;74.70;;;;;;5031986;28;20128;-72
2023/07/15 10:48:31;;;;;;;23.65;1.90;;;27.00;75.20;;;;;;5031924;28;20045;-71
2023/07/15 10:51:04;;;;;;;6.35;0.98;;;27.00;75.90;;;;;;5031899;28;20099;-71
2023/07/15 10:53:30;;;;;;;;;;;27.10;76.20;;;;;;5032228;28;20045;-72
2023/07/15 10:56:01;;;;;;;2.58;0.90;;;27.20;76.40;;;;;;5031733;28;19943;-72
2023/07/15 10:58:28;;;;;;;4.95;1.00;;;27.50;75.40;;;;;;5031686;28;20454;-72
2023/07/15 11:01:02;;;;;;;5.40;0.90;;;27.90;74.10;;;;;;5031792;28;20042;-71
2023/07/15 11:03:29;;;;;;;5.60;1.08;;;28.20;73.50;;;;;;5031784;28;20076;-72
2023/07/15 11:06:01;;;;;;;2.33;0.93;;;28.20;71.90;;;;;;5031731;28;20087;-72
2023/07/15 11:08:27;;;;;;;3.13;0.90;;;28.00;72.00;;;;;;5031957;28;20405;-71
2023/07/15 11:10:58;;;;;;;3.35;0.70;;;28.00;72.70;;;;;;5031660;28;20047;-72
2023/07/15 11:13:24;;;;;;;3.22;0.88;;;27.90;71.70;;;;;;5015212;28;20514;-72
2023/07/15 11:15:50;;;;;;;2.42;1.00;;;27.70;72.20;;;;;;5031499;28;20050;-72
2023/07/15 11:18:24;;;;;;;2.22;1.00;;;27.60;72.40;;;;;;5033536;28;20076;-72
2023/07/15 11:20:53;;;;;;;5.75;1.02;;;27.40;72.00;;;;;;5035538;28;20045;-72
2023/07/15 11:23:19;;;;;;;2.90;0.80;;;27.30;73.00;;;;;;5035726;28;20495;-72
2023/07/15 11:25:45;;;;;;;2.25;1.00;;;27.30;73.20;;;;;;5035742;28;20038;-72
2023/07/15 11:28:11;;;;;;;4.70;1.05;;;27.40;73.80;;;;;;5035353;28;20537;-72
2023/07/15 11:30:42;;;;;;;5.03;1.20;;;27.40;73.10;;;;;;5035305;28;20085;-72
2023/07/15 11:33:08;;;;;;;3.72;1.48;;;27.50;73.10;;;;;;5035906;28;20053;-72
2023/07/15 11:35:35;;;;;;;6.95;1.40;;;27.50;73.30;;;;;;5035542;28;20034;-75
2023/07/15 11:38:10;;;;;;;3.20;1.10;;;27.50;73.30;;;;;;5035436;28;20060;-74
2023/07/15 11:40:36;;;;;;;4.18;1.10;;;27.40;74.20;;;;;;5035439;28;20042;-74
2023/07/15 11:43:04;;;;;;;5.22;1.02;;;27.20;73.80;;;;;;5035171;28;20038;-74
2023/07/15 11:45:30;;;;;;;6.32;1.60;;;27.10;74.00;;;;;;5035546;28;20045;-74
2023/07/15 11:47:56;;;;;;;4.93;1.20;;;27.00;74.70;;;;;;5035070;28;20064;-71
2023/07/15 11:50:28;;;;;;;3.75;0.90;;;26.90;74.40;;;;;;5034973;28;20037;-71
2023/07/15 11:52:56;;;;;;;6.20;1.10;;;26.90;74.60;;;;;;5034970;28;20037;-71
2023/07/15 11:55:26;;;;;;;3.13;0.95;;;26.90;74.60;;;;;;5034738;28;20125;-71
2023/07/15 11:57:52;;;;;;;5.75;1.30;;;26.90;74.30;;;;;;5034775;28;20433;-71
2023/07/15 12:00:34;;;;;;;5.05;1.23;;;26.80;74.00;;;;;;5035056;28;20128;-70
2023/07/15 12:03:10;;;;;;;4.60;1.25;;;26.90;74.70;;;;;;5035045;28;20100;-71
2023/07/15 12:05:38;;;;;;;2.95;1.50;;;27.00;74.30;;;;;;5035062;28;20037;-71
2023/07/15 12:08:12;;;;;;;4.50;1.38;;;27.20;74.30;;;;;;5034641;28;20037;-70
2023/07/15 12:11:00;;;;;;;3.35;1.00;;;27.60;72.90;;;;;;5018466;28;20478;-71
2023/07/15 12:13:27;;;;;;;3.80;1.58;;;27.70;71.80;;;;;;5034665;28;20052;-71
2023/07/15 12:15:53;;;;;;;4.90;1.15;;;27.70;72.30;;;;;;5034513;28;20046;-71
2023/07/15 12:18:18;;;;;;;6.03;1.00;;;27.70;71.40;;;;;;5034679;28;20053;-71
2023/07/15 12:20:44;;;;;;;4.80;1.08;;;27.70;71.50;;;;;;5034688;28;20052;-71
2023/07/15 12:23:10;;;;;;;5.10;1.33;;;27.90;71.70;;;;;;5034438;28;20056;-71
2023/07/15 12:25:35;;;;;;;4.43;1.00;;;28.20;71.90;;;;;;5034648;28;20056;-71
2023/07/15 12:28:01;;;;;;;5.47;1.30;;;28.50;71.10;;;;;;5034505;28;20041;-71
2023/07/15 12:30:26;;;;;;;8.32;1.45;;;28.80;69.70;;;;;;5034127;28;20512;-70
2023/07/15 12:32:52;;;;;;;4.20;1.17;;;28.80;69.10;;;;;;5018027;28;20038;-71
2023/07/15 12:35:17;;;;;;;6.70;1.40;;;28.80;68.90;;;;;;5034368;28;20040;-71
2023/07/15 12:37:43;;;;;;;4.07;1.15;;;28.80;69.20;;;;;;5034325;28;20555;-70
2023/07/15 12:40:09;;;;;;;6.32;1.63;;;28.90;69.30;;;;;;5034423;28;20092;-71
2023/07/15 12:42:35;;;;;;;6.25;1.27;;;29.10;69.40;;;;;;5034088;28;20038;-71
2023/07/15 12:45:02;;;;;;;2.90;1.10;;;29.10;67.70;;;;;;5034048;28;20034;-72
2023/07/15 12:47:27;;;;;;;6.68;1.13;;;29.30;67.30;;;;;;5034263;28;20045;-71